createdAt,value
2019-04-20T00:01:38.762Z,88484.96
2019-04-20T00:04:09.908Z,88485.05
2019-04-20T00:06:43.178Z,88484.61
2019-04-20T00:09:11.869Z,88485.02
2019-04-20T00:11:47.101Z,88480.73
2019-04-20T00:14:10.382Z,88482.38
2019-04-20T00:16:31.685Z,88482.23
2019-04-20T00:19:01.859Z,88481.66
2019-04-20T00:21:27.214Z,88473.74
2019-04-20T00:23:54.770Z,88477.55
2019-04-20T00:26:34.058Z,88477.39
2019-04-20T00:29:06.918Z,88474.21
2019-04-20T00:31:38.023Z,88478.43
2019-04-20T00:33:56.209Z,88472.98
2019-04-20T00:36:16.173Z,88468.91
2019-04-20T00:38:50.938Z,88467.80
2019-04-20T00:41:14.291Z,88466.80
2019-04-20T00:43:42.131Z,88469.70
2019-04-20T00:46:19.581Z,88462.92
2019-04-20T00:48:48.497Z,88463.25
2019-04-20T00:51:24.970Z,88462.89
2019-04-20T00:53:39.624Z,88460.27
2019-04-20T00:56:03.769Z,88465.59
2019-04-20T00:58:42.118Z,88457.30
2019-04-20T01:01:20.669Z,88461.66
2019-04-20T01:03:43.207Z,88451.08
2019-04-20T01:06:19.010Z,88461.98
2019-04-20T01:08:25.697Z,88461.30
2019-04-20T01:10:55.708Z,88459.22
2019-04-20T01:13:24.825Z,88465.02
2019-04-20T01:15:55.395Z,88460.94
2019-04-20T01:18:18.098Z,88458.19
2019-04-20T01:20:45.266Z,88457.83
2019-04-20T01:23:15.806Z,88458.77
2019-04-20T01:25:43.793Z,88456.69
2019-04-20T01:28:29.928Z,88464.70
2019-04-20T01:30:45.792Z,88461.09
2019-04-20T01:33:22.860Z,88465.88
2019-04-20T01:35:48.913Z,88471.02
2019-04-20T01:38:20.902Z,88466.44
2019-04-20T01:40:32.028Z,88468.04
2019-04-20T01:42:59.493Z,88471.96
2019-04-20T01:45:31.427Z,88468.89
2019-04-20T01:47:57.846Z,88469.67
2019-04-20T01:50:27.669Z,88461.78
2019-04-20T01:53:03.503Z,88458.63
2019-04-20T01:55:43.993Z,88463.20
2019-04-20T01:58:12.151Z,88462.82
2019-04-20T02:00:30.732Z,88466.81
2019-04-20T02:02:58.679Z,88463.19
2019-04-20T02:05:29.064Z,88454.74
2019-04-20T02:07:53.907Z,88459.83
2019-04-20T02:10:22.890Z,88460.77
2019-04-20T02:12:53.052Z,88460.15
2019-04-20T02:15:24.256Z,88456.69
2019-04-20T02:17:59.709Z,88460.47
2019-04-20T02:20:54.490Z,88456.92
2019-04-20T02:23:16.498Z,88458.33
2019-04-20T02:25:31.160Z,88457.69
2019-04-20T02:28:18.962Z,88449.86
2019-04-20T02:33:40.043Z,88447.11
2019-04-20T02:36:04.808Z,88452.33
2019-04-20T02:38:38.856Z,88452.02
2019-04-20T02:41:02.394Z,88457.69
2019-04-20T02:43:34.777Z,88458.02
2019-04-20T02:45:49.130Z,88457.10
2019-04-20T02:48:13.429Z,88456.65
2019-04-20T02:50:59.264Z,88459.87
2019-04-20T02:55:53.507Z,88451.41
2019-04-20T02:58:20.411Z,88445.20
2019-04-20T03:00:35.442Z,88452.80
2019-04-20T03:02:55.322Z,88443.38
2019-04-20T03:05:20.430Z,88446.20
2019-04-20T03:07:57.399Z,88443.52
2019-04-20T03:10:34.337Z,88443.46
2019-04-20T03:12:57.064Z,88445.98
2019-04-20T03:15:33.764Z,88446.05
2019-04-20T03:17:58.794Z,88444.16
2019-04-20T03:20:29.966Z,88447.53
2019-04-20T03:25:24.233Z,88446.77
2019-04-20T03:27:46.130Z,88449.77
2019-04-20T03:31:08.823Z,88450.51
2019-04-20T03:35:22.495Z,88454.36
2019-04-20T03:37:42.697Z,88448.89
2019-04-20T03:40:09.902Z,88451.97
2019-04-20T03:42:24.454Z,88448.97
2019-04-20T03:44:58.693Z,88453.73
2019-04-20T03:47:31.462Z,88445.16
2019-04-20T03:50:16.754Z,88449.14
2019-04-20T03:52:32.844Z,88447.73
2019-04-20T03:54:54.353Z,88449.36
2019-04-20T03:57:38.333Z,88449.60
2019-04-20T04:00:04.866Z,88450.27
2019-04-20T04:04:59.077Z,88449.64
2019-04-20T04:07:19.546Z,88453.02
2019-04-20T04:09:56.408Z,88456.16
2019-04-20T04:13:03.077Z,88466.20
2019-04-20T04:15:29.885Z,88462.14
2019-04-20T04:17:58.468Z,88455.38
2019-04-20T04:20:32.981Z,88458.75
2019-04-20T04:23:10.349Z,88453.08
2019-04-20T04:25:33.686Z,88460.27
2019-04-20T04:28:09.322Z,88461.89
2019-04-20T04:30:33.056Z,88454.45
2019-04-20T04:33:32.217Z,88450.29
2019-04-20T04:35:29.808Z,88456.81
2019-04-20T04:38:02.698Z,88457.90
2019-04-20T04:40:42.180Z,88458.95
2019-04-20T04:43:05.700Z,88464.23
2019-04-20T04:45:17.241Z,88464.86
2019-04-20T04:47:42.892Z,88466.09
2019-04-20T04:50:16.435Z,88459.65
2019-04-20T04:52:49.237Z,88471.13
2019-04-20T04:55:20.038Z,88470.98
2019-04-20T04:57:36.928Z,88473.59
2019-04-20T05:00:11.126Z,88472.11
2019-04-20T05:02:41.252Z,88471.58
2019-04-20T05:05:25.448Z,88478.94
2019-04-20T05:07:47.824Z,88472.23
2019-04-20T05:10:01.952Z,88469.63
2019-04-20T05:12:33.122Z,88473.66
2019-04-20T05:15:05.216Z,88472.81
2019-04-20T05:17:45.317Z,88468.37
2019-04-20T05:20:16.062Z,88477.50
2019-04-20T05:22:42.848Z,88474.64
2019-04-20T05:25:10.840Z,88475.48
2019-04-20T05:27:40.093Z,88474.71
2019-04-20T05:29:49.252Z,88473.94
2019-04-20T05:32:24.719Z,88479.92
2019-04-20T05:35:08.461Z,88475.02
2019-04-20T05:37:59.598Z,88472.63
2019-04-20T05:40:09.390Z,88470.59
2019-04-20T05:42:30.218Z,88466.21
2019-04-20T05:44:57.255Z,88467.14
2019-04-20T05:47:26.603Z,88467.91
2019-04-20T05:49:53.868Z,88462.84
2019-04-20T05:54:57.314Z,88463.70
2019-04-20T05:57:25.167Z,88463.26
2019-04-20T05:59:56.211Z,88461.44
2019-04-20T06:02:26.264Z,88468.67
2019-04-20T06:05:00.203Z,88463.39
2019-04-20T06:07:20.928Z,88456.13
2019-04-20T06:09:46.255Z,88453.89
2019-04-20T06:12:31.499Z,88449.89
2019-04-20T06:14:39.424Z,88451.35
2019-04-20T06:17:08.861Z,88453.72
2019-04-20T06:19:57.555Z,88447.09
2019-04-20T06:22:14.930Z,88449.27
2019-04-20T06:24:44.838Z,88451.48
2019-04-20T06:27:04.784Z,88448.68
2019-04-20T06:29:31.819Z,88451.63
2019-04-20T06:32:07.020Z,88449.05
2019-04-20T06:34:37.729Z,88451.98
2019-04-20T06:37:02.074Z,88443.41
2019-04-20T06:44:32.260Z,88438.77
2019-04-20T06:51:59.984Z,88429.91
2019-04-20T06:54:15.916Z,88434.24
2019-04-20T06:56:54.425Z,88439.63
2019-04-20T06:59:27.675Z,88432.13
2019-04-20T07:01:56.918Z,88438.19
2019-04-20T07:04:43.110Z,88435.03
2019-04-20T07:09:27.218Z,88431.47
2019-04-20T07:11:47.756Z,88430.29
2019-04-20T07:14:00.962Z,88430.61
2019-04-20T07:16:47.870Z,88421.65
2019-04-20T07:19:17.284Z,88423.08
2019-04-20T07:21:57.363Z,88432.47
2019-04-20T07:24:11.782Z,88425.70
2019-04-20T07:26:39.982Z,88424.96
2019-04-20T07:29:13.552Z,88425.03
2019-04-20T07:31:29.645Z,88420.22
2019-04-20T07:34:03.721Z,88410.77
2019-04-20T07:36:32.328Z,88420.38
2019-04-20T07:39:03.723Z,88411.23
2019-04-20T07:41:33.023Z,88410.66
2019-04-20T07:44:02.969Z,88414.88
2019-04-20T07:46:41.098Z,88408.48
2019-04-20T07:48:56.457Z,88410.52
2019-04-20T07:51:13.713Z,88402.47
2019-04-20T07:53:45.030Z,88409.11
2019-04-20T07:56:25.902Z,88401.48
2019-04-20T07:58:36.699Z,88398.36
2019-04-20T08:01:22.579Z,88395.20
2019-04-20T08:04:01.380Z,88398.95
2019-04-20T08:06:02.428Z,88397.39
2019-04-20T08:08:38.539Z,88388.78
2019-04-20T08:11:07.352Z,88395.41
2019-04-20T08:13:46.700Z,88385.60
2019-04-20T08:16:08.758Z,88378.69
2019-04-20T08:18:40.041Z,88387.42
2019-04-20T08:21:06.408Z,88384.80
2019-04-20T08:23:34.861Z,88380.92
2019-04-20T08:25:53.241Z,88378.66
2019-04-20T08:28:16.439Z,88384.22
2019-04-20T08:30:57.102Z,88372.95
2019-04-20T08:33:29.915Z,88375.92
2019-04-20T08:36:01.229Z,88375.31
2019-04-20T08:40:53.634Z,88366.48
2019-04-20T08:43:37.687Z,88369.30
2019-04-20T08:45:49.235Z,88362.68
2019-04-20T08:48:27.469Z,88364.56
2019-04-20T08:50:50.688Z,88355.27
2019-04-20T08:53:20.756Z,88363.02
2019-04-20T08:55:42.540Z,88352.98
2019-04-20T08:57:54.344Z,88358.01
2019-04-20T09:00:29.322Z,88356.98
2019-04-20T09:02:57.875Z,88348.13
2019-04-20T09:05:32.619Z,88339.57
2019-04-20T09:07:57.184Z,88345.88
2019-04-20T09:10:38.014Z,88334.79
2019-04-20T09:12:57.391Z,88338.60
2019-04-20T09:15:16.845Z,88335.95
2019-04-20T09:17:49.458Z,88334.33
2019-04-20T09:20:21.517Z,88328.19
2019-04-20T09:22:50.657Z,88324.04
2019-04-20T09:27:45.708Z,88321.13
2019-04-20T09:30:24.299Z,88317.06
2019-04-20T09:32:56.710Z,88324.11
2019-04-20T09:35:27.724Z,88315.58
2019-04-20T09:37:53.115Z,88315.53
2019-04-20T09:40:29.331Z,88317.70
2019-04-20T09:42:34.991Z,88315.23
2019-04-20T09:45:04.916Z,88316.03
2019-04-20T09:47:36.903Z,88311.17
2019-04-20T09:50:13.445Z,88304.31
2019-04-20T09:52:48.014Z,88301.34
2019-04-20T09:55:10.703Z,88300.26
2019-04-20T09:57:43.858Z,88294.42
2019-04-20T10:00:13.336Z,88293.77
2019-04-20T10:02:27.812Z,88289.01
2019-04-20T10:04:51.617Z,88289.23
2019-04-20T10:07:22.243Z,88289.09
2019-04-20T10:09:48.372Z,88286.90
2019-04-20T10:12:15.742Z,88284.30
2019-04-20T10:14:42.796Z,88278.90
2019-04-20T10:17:09.712Z,88276.45
2019-04-20T10:19:39.129Z,88278.09
2019-04-20T10:22:05.094Z,88273.39
2019-04-20T10:24:32.799Z,88271.55
2019-04-20T10:27:00.807Z,88272.01
2019-04-20T10:29:27.929Z,88273.23
2019-04-20T10:31:58.535Z,88271.35
2019-04-20T10:34:24.224Z,88269.70
2019-04-20T10:36:51.440Z,88265.59
2019-04-20T10:39:18.514Z,88269.22
2019-04-20T10:41:51.275Z,88265.45
2019-04-20T10:44:14.666Z,88267.98
2019-04-20T10:46:42.818Z,88269.14
2019-04-20T10:49:11.090Z,88265.73
2019-04-20T10:51:38.125Z,88264.99
2019-04-20T10:54:04.924Z,88257.54
2019-04-20T10:56:31.777Z,88260.97
2019-04-20T10:58:58.509Z,88266.25
2019-04-20T11:01:25.453Z,88261.45
2019-04-20T11:03:52.373Z,88255.45
2019-04-20T11:06:20.557Z,88261.97
2019-04-20T11:08:48.649Z,88250.33
2019-04-20T11:11:22.849Z,88254.78
2019-04-20T11:13:44.092Z,88247.94
2019-04-20T11:16:10.871Z,88255.87
2019-04-20T11:18:37.729Z,88253.97
2019-04-20T11:21:04.573Z,88248.58
2019-04-20T11:23:32.097Z,88244.69
2019-04-20T11:26:00.151Z,88245.98
2019-04-20T11:28:28.193Z,88243.59
2019-04-20T11:30:56.229Z,88238.22
2019-04-20T11:33:24.449Z,88243.19
2019-04-20T11:35:51.589Z,88236.95
2019-04-20T11:38:19.629Z,88241.55
2019-04-20T11:40:48.171Z,88236.11
2019-04-20T11:43:15.625Z,88234.39
2019-04-20T11:45:42.735Z,88231.72
2019-04-20T11:48:09.758Z,88236.28
2019-04-20T11:50:37.707Z,88230.86
2019-04-20T11:53:05.586Z,88227.69
2019-04-20T11:55:34.012Z,88214.25
2019-04-20T11:58:01.709Z,88218.80
2019-04-20T12:00:52.080Z,88220.72
2019-04-20T12:03:21.349Z,88227.19
2019-04-20T12:05:44.550Z,88218.95
2019-04-20T12:08:09.106Z,88215.59
2019-04-20T12:10:37.175Z,88218.80
2019-04-20T12:13:03.985Z,88218.19
2019-04-20T12:15:33.667Z,88221.23
2019-04-20T12:17:59.871Z,88216.78
2019-04-20T12:20:26.952Z,88216.05
2019-04-20T12:22:54.637Z,88208.17
2019-04-20T12:25:21.538Z,88200.09
2019-04-20T12:27:52.574Z,88201.29
2019-04-20T12:30:17.583Z,88201.52
2019-04-20T12:32:50.477Z,88198.25
2019-04-20T12:35:14.116Z,88204.15
2019-04-20T12:37:41.250Z,88199.03
2019-04-20T12:40:12.133Z,88194.24
2019-04-20T12:42:39.252Z,88193.30
2019-04-20T12:45:09.610Z,88192.36
2019-04-20T12:47:37.481Z,88197.23
2019-04-20T12:50:07.669Z,88192.11
2019-04-20T12:52:34.693Z,88189.09
2019-04-20T12:55:04.356Z,88194.37
2019-04-20T12:57:30.239Z,88185.47
2019-04-20T12:59:57.288Z,88190.91
2019-04-20T13:02:25.151Z,88186.19
2019-04-20T13:04:53.297Z,88188.84
2019-04-20T13:07:21.040Z,88188.14
2019-04-20T13:09:50.852Z,88185.63
2019-04-20T13:12:19.475Z,88182.76
2019-04-20T13:15:06.540Z,88187.95
2019-04-20T13:17:34.452Z,88178.63
2019-04-20T13:20:01.738Z,88181.38
2019-04-20T13:22:28.742Z,88172.47
2019-04-20T13:24:56.935Z,88179.03
2019-04-20T13:27:25.056Z,88178.95
2019-04-20T13:29:52.977Z,88172.17
2019-04-20T13:32:20.449Z,88167.98
2019-04-20T13:34:47.316Z,88164.82
2019-04-20T13:37:14.202Z,88167.42
2019-04-20T13:39:40.938Z,88160.34
2019-04-20T13:42:16.063Z,88158.27
2019-04-20T13:44:38.734Z,88160.69
2019-04-20T13:47:07.258Z,88159.61
2019-04-20T13:49:34.175Z,88154.17
2019-04-20T13:52:00.957Z,88150.02
2019-04-20T13:54:28.583Z,88144.73
2019-04-20T13:56:56.618Z,88140.83
2019-04-20T13:59:24.568Z,88147.89
2019-04-20T14:01:52.822Z,88139.68
2019-04-20T14:04:20.970Z,88132.64
2019-04-20T14:06:49.492Z,88130.53
2019-04-20T14:09:17.184Z,88131.73
2019-04-20T14:11:45.289Z,88116.23
2019-04-20T14:14:13.085Z,88128.13
2019-04-20T14:16:41.217Z,88115.75
2019-04-20T14:19:09.303Z,88118.44
2019-04-20T14:21:36.475Z,88117.09
2019-04-20T14:24:04.350Z,88111.98
2019-04-20T14:26:32.649Z,88110.84
2019-04-20T14:29:00.879Z,88106.67
2019-04-20T14:31:27.960Z,88102.39
2019-04-20T14:33:57.123Z,88105.50
2019-04-20T14:36:24.382Z,88097.96
2019-04-20T14:38:51.976Z,88095.63
2019-04-20T14:41:20.584Z,88097.06
2019-04-20T14:43:48.886Z,88092.22
2019-04-20T14:46:16.826Z,88085.27
2019-04-20T14:48:44.878Z,88089.15
2019-04-20T14:51:11.892Z,88085.59
2019-04-20T14:53:38.713Z,88088.42
2019-04-20T14:56:05.447Z,88080.13
2019-04-20T14:58:33.722Z,88081.85
2019-04-20T15:01:00.873Z,88081.37
2019-04-20T15:03:28.308Z,88077.39
2019-04-20T15:06:00.000Z,88073.15
2019-04-20T15:08:27.018Z,88072.42
2019-04-20T15:10:54.573Z,88070.52
2019-04-20T15:13:22.556Z,88077.64
2019-04-20T15:15:50.629Z,88072.11
2019-04-20T15:18:17.735Z,88072.04
2019-04-20T15:20:45.697Z,88071.55
2019-04-20T15:23:12.470Z,88069.66
2019-04-20T15:25:40.237Z,88070.84
2019-04-20T15:28:08.246Z,88072.05
2019-04-20T15:30:36.111Z,88072.69
2019-04-20T15:33:03.221Z,88068.92
2019-04-20T15:35:30.230Z,88064.61
2019-04-20T15:37:57.319Z,88064.28
2019-04-20T15:40:27.016Z,88071.89
2019-04-20T15:43:01.087Z,88062.80
2019-04-20T15:45:23.495Z,88063.99
2019-04-20T15:47:50.339Z,88059.62
2019-04-20T15:50:18.086Z,88061.02
2019-04-20T15:52:50.504Z,88060.06
2019-04-20T15:55:22.646Z,88057.20
2019-04-20T15:57:42.774Z,88052.02
2019-04-20T16:00:10.923Z,88057.91
2019-04-20T16:02:39.034Z,88063.16
2019-04-20T16:05:06.465Z,88057.03
2019-04-20T16:07:39.179Z,88051.36
2019-04-20T16:10:07.451Z,88049.48
2019-04-20T16:12:35.091Z,88048.59
2019-04-20T16:15:03.938Z,88048.52
2019-04-20T16:17:36.862Z,88046.33
2019-04-20T16:20:06.411Z,88043.31
2019-04-20T16:22:28.920Z,88046.57
2019-04-20T16:24:59.177Z,88047.08
2019-04-20T16:27:27.553Z,88044.29
2019-04-20T16:29:55.783Z,88044.50
2019-04-20T16:32:42.722Z,88041.23
2019-04-20T16:35:10.884Z,88038.24
2019-04-20T16:37:38.371Z,88034.34
2019-04-20T16:40:07.715Z,88031.72
2019-04-20T16:42:38.493Z,88035.45
2019-04-20T16:45:07.254Z,88024.31
2019-04-20T16:47:34.371Z,88027.11
2019-04-20T16:50:01.295Z,88026.30
2019-04-20T16:52:28.834Z,88034.98
2019-04-20T16:54:55.709Z,88030.98
2019-04-20T16:57:23.679Z,88032.42
2019-04-20T16:59:53.009Z,88025.80
2019-04-20T17:02:19.887Z,88028.34
2019-04-20T17:04:50.317Z,88030.77
2019-04-20T17:07:16.687Z,88031.73
2019-04-20T17:09:43.932Z,88031.72
2019-04-20T17:12:11.975Z,88027.67
2019-04-20T17:14:39.919Z,88028.08
2019-04-20T17:17:07.423Z,88033.67
2019-04-20T17:19:35.522Z,88031.51
2019-04-20T17:22:03.617Z,88035.23
2019-04-20T17:24:31.355Z,88036.67
2019-04-20T17:26:59.088Z,88038.41
2019-04-20T17:29:26.281Z,88035.41
2019-04-20T17:31:53.554Z,88040.39
2019-04-20T17:34:36.333Z,88050.55
2019-04-20T17:36:50.491Z,88044.14
2019-04-20T17:39:27.810Z,88044.78
2019-04-20T17:42:03.441Z,88049.35
2019-04-20T17:44:31.497Z,88051.09
2019-04-20T17:46:56.877Z,88052.78
2019-04-20T17:49:28.109Z,88053.94
2019-04-20T17:52:05.089Z,88054.70
2019-04-20T17:54:10.560Z,88062.65
2019-04-20T17:56:38.391Z,88056.60
2019-04-20T17:59:06.154Z,88064.55
2019-04-20T18:01:49.977Z,88065.11
2019-04-20T18:04:37.003Z,88070.21
2019-04-20T18:06:43.689Z,88066.77
2019-04-20T18:09:13.286Z,88066.92
2019-04-20T18:11:36.248Z,88076.34
2019-04-20T18:14:04.273Z,88076.48
2019-04-20T18:16:46.858Z,88082.91
2019-04-20T18:19:03.256Z,88085.70
2019-04-20T18:21:24.415Z,88088.14
2019-04-20T18:23:51.889Z,88082.39
2019-04-20T18:26:37.855Z,88084.23
2019-04-20T18:29:21.363Z,88092.52
2019-04-20T18:31:15.847Z,88093.58
2019-04-20T18:33:42.602Z,88096.17
2019-04-20T18:36:13.363Z,88101.95
2019-04-20T18:38:49.084Z,88106.05
2019-04-20T18:41:08.895Z,88108.25
2019-04-20T18:43:42.711Z,88112.00
2019-04-20T18:46:23.778Z,88110.03
2019-04-20T18:48:57.104Z,88116.24
2019-04-20T18:51:02.043Z,88120.87
2019-04-20T18:53:35.964Z,88125.09
2019-04-20T18:56:00.565Z,88128.41
2019-04-20T18:58:27.016Z,88123.59
2019-04-20T19:01:14.998Z,88128.98
2019-04-20T19:03:44.003Z,88124.55
2019-04-20T19:06:12.090Z,88125.21
2019-04-20T19:08:44.659Z,88129.28
2019-04-20T19:11:11.453Z,88129.78
2019-04-20T19:13:38.741Z,88134.27
2019-04-20T19:16:16.680Z,88132.70
2019-04-20T19:18:50.735Z,88133.94
2019-04-20T19:21:03.419Z,88131.61
2019-04-20T19:23:33.799Z,88136.03
2019-04-20T19:26:04.452Z,88137.11
2019-04-20T19:28:35.212Z,88140.02
2019-04-20T19:31:12.579Z,88147.69
2019-04-20T19:33:37.613Z,88151.16
2019-04-20T19:36:09.223Z,88149.25
2019-04-20T19:38:29.494Z,88151.58
2019-04-20T19:40:59.428Z,88151.66
2019-04-20T19:43:26.648Z,88157.56
2019-04-20T19:46:30.991Z,88155.40
2019-04-20T19:48:27.893Z,88156.34
2019-04-20T19:51:24.899Z,88164.16
2019-04-20T19:53:38.122Z,88157.66
2019-04-20T19:55:56.322Z,88157.80
2019-04-20T19:58:26.405Z,88156.27
2019-04-20T20:00:53.600Z,88161.98
2019-04-20T20:03:19.963Z,88160.57
2019-04-20T20:05:49.890Z,88163.63
2019-04-20T20:08:20.996Z,88158.74
2019-04-20T20:10:45.722Z,88164.34
2019-04-20T20:13:13.182Z,88161.61
2019-04-20T20:15:41.792Z,88167.31
2019-04-20T20:18:27.872Z,88163.45
2019-04-20T20:20:55.360Z,88170.50
2019-04-20T20:23:05.833Z,88167.45
2019-04-20T20:25:37.346Z,88167.19
2019-04-20T20:28:14.520Z,88162.77
2019-04-20T20:30:35.349Z,88157.70
2019-04-20T20:33:16.074Z,88151.47
2019-04-20T20:35:30.780Z,88160.55
2019-04-20T20:37:59.464Z,88159.23
2019-04-20T20:40:29.844Z,88157.48
2019-04-20T20:43:04.803Z,88152.16
2019-04-20T20:45:32.785Z,88155.11
2019-04-20T20:48:12.067Z,88152.02
2019-04-20T20:50:36.381Z,88144.61
2019-04-20T20:53:00.983Z,88147.52
2019-04-20T20:55:25.818Z,88147.50
2019-04-20T20:57:55.727Z,88152.29
2019-04-20T21:00:34.439Z,88152.42
2019-04-20T21:02:50.331Z,88158.50
2019-04-20T21:05:11.588Z,88160.66
2019-04-20T21:07:38.678Z,88162.36
2019-04-20T21:10:08.323Z,88162.36
2019-04-20T21:12:37.333Z,88161.17
2019-04-20T21:15:12.267Z,88167.18
2019-04-20T21:17:47.646Z,88162.72
2019-04-20T21:20:20.419Z,88170.81
2019-04-20T21:22:57.513Z,88174.56
2019-04-20T21:25:07.273Z,88170.32
2019-04-20T21:27:34.989Z,88165.64
2019-04-20T21:30:03.581Z,88167.23
2019-04-20T21:32:33.019Z,88158.83
2019-04-20T21:35:03.503Z,88166.84
2019-04-20T21:37:28.942Z,88166.97
2019-04-20T21:39:59.685Z,88165.78
2019-04-20T21:42:26.762Z,88165.36
2019-04-20T21:45:05.860Z,88159.69
2019-04-20T21:47:28.003Z,88157.77
2019-04-20T21:50:03.129Z,88155.45
2019-04-20T21:52:27.225Z,88166.19
2019-04-20T21:54:47.906Z,88171.70
2019-04-20T21:57:16.434Z,88170.16
2019-04-20T21:59:48.496Z,88170.50
2019-04-20T22:02:19.456Z,88168.55
2019-04-20T22:04:40.699Z,88168.00
2019-04-20T22:07:08.048Z,88166.27
2019-04-20T22:09:42.272Z,88164.75
2019-04-20T22:12:05.772Z,88165.84
2019-04-20T22:14:33.986Z,88158.51
2019-04-20T22:17:03.659Z,88160.23
2019-04-20T22:19:41.042Z,88159.87
2019-04-20T22:22:05.486Z,88162.02
2019-04-20T22:24:42.212Z,88160.45
2019-04-20T22:27:07.787Z,88166.01
2019-04-20T22:29:24.007Z,88164.77
2019-04-20T22:31:53.481Z,88163.03
2019-04-20T22:34:23.825Z,88160.45
2019-04-20T22:36:50.071Z,88155.87
2019-04-20T22:39:16.446Z,88159.09
2019-04-20T22:41:45.790Z,88160.34
2019-04-20T22:44:15.166Z,88158.56
2019-04-20T22:46:42.253Z,88150.50
2019-04-20T22:49:28.190Z,88152.95
2019-04-20T22:51:50.516Z,88139.33
2019-04-20T22:54:21.925Z,88144.58
2019-04-20T22:56:47.035Z,88142.73
2019-04-20T22:59:12.584Z,88140.88
2019-04-20T23:01:40.436Z,88142.66
2019-04-20T23:04:01.509Z,88143.77
2019-04-20T23:06:33.377Z,88141.63
2019-04-20T23:09:01.073Z,88136.53
2019-04-20T23:11:29.076Z,88135.69
2019-04-20T23:13:54.024Z,88134.07
2019-04-20T23:16:21.025Z,88132.99
2019-04-20T23:18:47.886Z,88136.82
2019-04-20T23:21:17.388Z,88138.39
2019-04-20T23:23:43.703Z,88135.55
2019-04-20T23:26:11.423Z,88142.22
2019-04-20T23:28:47.763Z,88138.52
2019-04-20T23:31:15.197Z,88141.25
2019-04-20T23:33:36.395Z,88142.68
2019-04-20T23:36:04.693Z,88144.23
2019-04-20T23:38:32.724Z,88136.47
2019-04-20T23:40:59.672Z,88135.70
2019-04-20T23:43:29.893Z,88134.62
2019-04-20T23:45:54.980Z,88135.59
2019-04-20T23:48:23.685Z,88130.80
2019-04-20T23:51:05.821Z,88136.16
2019-04-20T23:53:35.129Z,88133.77
2019-04-20T23:55:47.885Z,88129.33
2019-04-20T23:58:16.438Z,88131.41
